createdAt,value
2022-12-13T00:01:24.468Z,-2.65
2022-12-13T00:03:56.038Z,-2.61
2022-12-13T00:06:22.584Z,-2.80
2022-12-13T00:08:49.326Z,-2.76
2022-12-13T00:11:16.469Z,-2.77
2022-12-13T00:13:43.807Z,-2.82
2022-12-13T00:16:13.502Z,-2.87
2022-12-13T00:18:40.390Z,-2.91
2022-12-13T00:21:08.347Z,-2.85
2022-12-13T00:23:35.855Z,-2.81
2022-12-13T00:26:07.985Z,-2.87
2022-12-13T00:28:34.429Z,-3.00
2022-12-13T00:31:20.051Z,-2.94
2022-12-13T00:33:49.238Z,-2.85
2022-12-13T00:36:16.934Z,-2.80
2022-12-13T00:38:43.467Z,-2.89
2022-12-13T00:41:14.847Z,-2.87
2022-12-13T00:43:41.395Z,-2.92
2022-12-13T00:46:14.671Z,-3.01
2022-12-13T00:48:42.099Z,-3.08
2022-12-13T00:51:10.051Z,-3.01
2022-12-13T00:53:36.998Z,-3.11
2022-12-13T00:56:04.524Z,-3.18
2022-12-13T00:58:30.963Z,-3.16
2022-12-13T01:01:09.765Z,-3.13
2022-12-13T01:03:36.803Z,-2.98
2022-12-13T01:06:17.569Z,-2.90
2022-12-13T01:08:44.964Z,-2.88
2022-12-13T01:11:12.050Z,-2.90
2022-12-13T01:13:38.997Z,-2.93
2022-12-13T01:16:08.436Z,-2.83
2022-12-13T01:18:35.587Z,-2.80
2022-12-13T01:21:05.106Z,-2.81
2022-12-13T01:23:32.265Z,-2.80
2022-12-13T01:25:58.774Z,-2.85
2022-12-13T01:28:25.668Z,-3.11
2022-12-13T01:31:01.332Z,-3.24
2022-12-13T01:33:28.519Z,-3.24
2022-12-13T01:35:55.066Z,-3.19
2022-12-13T01:38:26.248Z,-3.17
2022-12-13T01:40:59.337Z,-3.15
2022-12-13T01:43:46.994Z,-3.29
2022-12-13T01:46:15.112Z,-3.29
2022-12-13T01:48:59.324Z,-3.37
2022-12-13T01:51:32.017Z,-3.44
2022-12-13T01:54:03.195Z,-3.30
2022-12-13T01:56:36.877Z,-3.28
2022-12-13T01:59:06.836Z,-3.23
2022-12-13T02:01:33.991Z,-3.15
2022-12-13T02:04:00.513Z,-3.11
2022-12-13T02:06:33.957Z,-3.22
2022-12-13T02:09:01.618Z,-3.30
2022-12-13T02:11:28.875Z,-3.30
2022-12-13T02:13:55.370Z,-3.25
2022-12-13T02:16:22.946Z,-3.21
2022-12-13T02:19:27.354Z,-3.29
2022-12-13T02:22:32.871Z,-3.16
2022-12-13T02:25:15.049Z,-3.07
2022-12-13T02:28:30.314Z,-2.99
2022-12-13T02:31:10.963Z,-3.33
2022-12-13T02:34:10.424Z,-3.38
2022-12-13T02:37:18.122Z,-3.50
2022-12-13T02:39:54.133Z,-3.61
2022-12-13T02:42:29.540Z,-3.67
2022-12-13T02:45:20.244Z,-3.68
2022-12-13T02:47:49.715Z,-3.75
2022-12-13T02:50:16.953Z,-3.79
2022-12-13T02:52:46.503Z,-3.77
2022-12-13T02:55:15.962Z,-3.73
2022-12-13T02:57:45.422Z,-3.68
2022-12-13T03:00:49.454Z,-3.66
2022-12-13T03:03:34.685Z,-3.75
2022-12-13T03:06:33.929Z,-3.56
2022-12-13T03:09:32.997Z,-3.46
2022-12-13T03:12:39.381Z,-3.39
2022-12-13T03:15:11.753Z,-3.36
2022-12-13T03:17:45.570Z,-3.38
2022-12-13T03:20:23.308Z,-3.45
2022-12-13T03:22:51.544Z,-3.50
2022-12-13T03:25:30.577Z,-3.50
2022-12-13T03:27:58.131Z,-3.49
2022-12-13T03:30:28.285Z,-3.56
2022-12-13T03:32:54.724Z,-3.55
2022-12-13T03:35:22.270Z,-3.56
2022-12-13T03:37:49.576Z,-3.67
2022-12-13T03:40:17.012Z,-3.63
2022-12-13T03:42:43.485Z,-3.85
2022-12-13T03:45:10.225Z,-4.06
2022-12-13T03:47:36.658Z,-4.01
2022-12-13T03:50:25.292Z,-3.93
2022-12-13T03:52:51.849Z,-4.01
2022-12-13T03:55:19.229Z,-4.06
2022-12-13T03:57:45.736Z,-4.07
2022-12-13T04:00:12.901Z,-3.88
2022-12-13T04:02:39.654Z,-3.83
2022-12-13T04:05:06.584Z,-3.85
2022-12-13T04:07:34.316Z,-4.06
2022-12-13T04:10:01.504Z,-4.12
2022-12-13T04:12:48.558Z,-4.03
2022-12-13T04:15:15.645Z,-4.01
2022-12-13T04:17:42.520Z,-4.02
2022-12-13T04:20:09.545Z,-3.87
2022-12-13T04:22:36.091Z,-3.90
2022-12-13T04:25:03.840Z,-4.01
2022-12-13T04:27:30.709Z,-4.15
2022-12-13T04:29:57.258Z,-4.05
2022-12-13T04:32:26.051Z,-4.09
2022-12-13T04:34:53.549Z,-4.14
2022-12-13T04:37:27.892Z,-4.22
2022-12-13T04:39:54.329Z,-4.23
2022-12-13T04:42:27.532Z,-4.30
2022-12-13T04:44:54.334Z,-4.30
2022-12-13T04:47:20.857Z,-4.32
2022-12-13T04:49:47.956Z,-4.36
2022-12-13T04:52:22.553Z,-4.33
2022-12-13T04:54:55.755Z,-4.35
2022-12-13T04:57:22.814Z,-4.32
2022-12-13T04:59:49.315Z,-4.34
2022-12-13T05:02:23.313Z,-4.34
2022-12-13T05:04:54.103Z,-4.37
2022-12-13T05:07:21.149Z,-4.29
2022-12-13T05:09:47.781Z,-4.35
2022-12-13T05:12:23.046Z,-4.28
2022-12-13T05:14:51.439Z,-4.32
2022-12-13T05:17:18.033Z,-4.27
2022-12-13T05:19:44.715Z,-4.20
2022-12-13T05:22:19.703Z,-4.21
2022-12-13T05:24:47.212Z,-4.18
2022-12-13T05:27:24.994Z,-4.08
2022-12-13T05:30:02.806Z,-4.09
2022-12-13T05:32:44.069Z,-3.99
2022-12-13T05:35:22.838Z,-3.95
2022-12-13T05:37:54.998Z,-3.96
2022-12-13T05:40:23.265Z,-4.03
2022-12-13T05:42:49.799Z,-4.15
2022-12-13T05:45:18.723Z,-4.24
2022-12-13T05:47:45.817Z,-4.34
2022-12-13T05:50:13.497Z,-4.20
2022-12-13T05:52:40.157Z,-4.06
2022-12-13T05:55:06.912Z,-4.19
2022-12-13T05:57:34.172Z,-4.13
2022-12-13T06:00:00.822Z,-4.16
2022-12-13T06:02:27.650Z,-4.14
2022-12-13T06:04:54.233Z,-4.05
2022-12-13T06:07:20.959Z,-4.12
2022-12-13T06:09:47.521Z,-4.29
2022-12-13T06:12:31.031Z,-4.30
2022-12-13T06:15:00.842Z,-4.20
2022-12-13T06:17:36.220Z,-4.04
2022-12-13T06:20:23.824Z,-4.01
2022-12-13T06:22:52.161Z,-4.10
2022-12-13T06:25:30.566Z,-4.11
2022-12-13T06:28:00.943Z,-4.09
2022-12-13T06:30:28.518Z,-3.99
2022-12-13T06:32:55.153Z,-3.95
2022-12-13T06:35:29.518Z,-3.99
2022-12-13T06:38:00.875Z,-4.03
2022-12-13T06:40:30.154Z,-4.08
2022-12-13T06:42:56.714Z,-4.07
2022-12-13T06:45:23.225Z,-4.09
2022-12-13T06:47:49.678Z,-4.10
2022-12-13T06:50:16.344Z,-4.11
2022-12-13T06:52:42.782Z,-4.14
2022-12-13T06:55:09.738Z,-4.07
2022-12-13T06:57:36.203Z,-4.11
2022-12-13T07:00:04.977Z,-4.12
2022-12-13T07:02:32.605Z,-4.12
2022-12-13T07:04:59.162Z,-4.04
2022-12-13T07:07:26.277Z,-3.99
2022-12-13T07:09:53.595Z,-3.99
2022-12-13T07:12:21.098Z,-4.03
2022-12-13T07:14:48.496Z,-4.03
2022-12-13T07:17:32.565Z,-4.02
2022-12-13T07:20:01.508Z,-4.00
2022-12-13T07:22:28.384Z,-3.99
2022-12-13T07:24:54.856Z,-4.07
2022-12-13T07:27:21.263Z,-4.09
2022-12-13T07:29:47.721Z,-4.05
2022-12-13T07:32:14.428Z,-4.02
2022-12-13T07:34:40.925Z,-4.00
2022-12-13T07:37:30.323Z,-3.96
2022-12-13T07:40:02.553Z,-3.97
2022-12-13T07:42:29.794Z,-3.98
2022-12-13T07:44:56.272Z,-3.94
2022-12-13T07:47:23.385Z,-3.93
2022-12-13T07:49:49.890Z,-3.95
2022-12-13T07:52:16.355Z,-3.97
2022-12-13T07:54:42.835Z,-4.10
2022-12-13T07:57:09.295Z,-4.01
2022-12-13T07:59:35.740Z,-3.98
2022-12-13T08:02:02.294Z,-4.00
2022-12-13T08:04:29.558Z,-3.94
2022-12-13T08:07:09.482Z,-3.89
2022-12-13T08:09:36.844Z,-3.90
2022-12-13T08:12:05.244Z,-3.93
2022-12-13T08:14:31.781Z,-3.91
2022-12-13T08:16:58.289Z,-3.88
2022-12-13T08:19:24.832Z,-3.82
2022-12-13T08:21:55.019Z,-3.86
2022-12-13T08:24:27.513Z,-3.86
2022-12-13T08:27:00.959Z,-3.96
2022-12-13T08:29:33.149Z,-4.09
2022-12-13T08:32:13.055Z,-4.10
2022-12-13T08:34:41.278Z,-3.97
2022-12-13T08:37:08.216Z,-3.88
2022-12-13T08:39:37.425Z,-3.84
2022-12-13T08:42:16.122Z,-3.79
2022-12-13T08:44:49.880Z,-3.71
2022-12-13T08:47:24.748Z,-3.60
2022-12-13T08:49:53.518Z,-3.55
2022-12-13T08:52:22.310Z,-3.56
2022-12-13T08:54:48.815Z,-3.61
2022-12-13T08:57:15.708Z,-3.62
2022-12-13T08:59:42.195Z,-3.56
2022-12-13T09:02:15.360Z,-3.50
2022-12-13T09:04:42.727Z,-3.44
2022-12-13T09:07:09.546Z,-3.35
2022-12-13T09:09:36.955Z,-3.31
2022-12-13T09:12:10.695Z,-3.26
2022-12-13T09:14:37.996Z,-3.26
2022-12-13T09:17:14.717Z,-3.24
2022-12-13T09:19:51.030Z,-3.14
2022-12-13T09:22:33.595Z,-3.15
2022-12-13T09:25:04.411Z,-3.08
2022-12-13T09:27:39.512Z,-3.08
2022-12-13T09:30:08.605Z,-3.03
2022-12-13T09:32:35.227Z,-3.00
2022-12-13T09:35:01.918Z,-3.01
2022-12-13T09:37:30.085Z,-2.97
2022-12-13T09:39:56.582Z,-2.91
2022-12-13T09:42:30.827Z,-2.80
2022-12-13T09:45:22.257Z,-2.77
2022-12-13T09:47:52.458Z,-2.76
2022-12-13T09:50:37.767Z,-2.70
2022-12-13T09:53:11.937Z,-2.71
2022-12-13T09:55:50.069Z,-2.66
2022-12-13T09:58:31.732Z,-2.60
2022-12-13T10:00:59.301Z,-2.64
2022-12-13T10:03:26.588Z,-2.59
2022-12-13T10:06:15.217Z,-2.57
2022-12-13T10:08:57.859Z,-2.53
2022-12-13T10:11:31.639Z,-2.50
2022-12-13T10:14:12.464Z,-2.43
2022-12-13T10:16:48.943Z,-2.35
2022-12-13T10:19:35.453Z,-2.30
2022-12-13T10:22:04.705Z,-2.24
2022-12-13T10:24:48.275Z,-2.16
2022-12-13T10:27:28.069Z,-2.12
2022-12-13T10:30:06.619Z,-2.07
2022-12-13T10:32:42.644Z,-2.05
2022-12-13T10:35:21.998Z,-2.04
2022-12-13T10:37:48.591Z,-2.00
2022-12-13T10:40:41.000Z,-1.93
2022-12-13T10:43:07.545Z,-1.87
2022-12-13T10:45:34.250Z,-1.82
2022-12-13T10:48:04.187Z,-1.75
2022-12-13T10:50:31.955Z,-1.72
2022-12-13T10:53:00.613Z,-1.67
2022-12-13T10:55:38.061Z,-1.61
2022-12-13T10:58:07.392Z,-1.57
2022-12-13T11:00:33.937Z,-1.50
2022-12-13T11:03:00.413Z,-1.46
2022-12-13T11:05:35.260Z,-1.44
2022-12-13T11:08:23.392Z,-1.41
2022-12-13T11:10:59.211Z,-1.40
2022-12-13T11:13:36.730Z,-1.37
2022-12-13T11:16:13.473Z,-1.34
2022-12-13T11:18:40.531Z,-1.30
2022-12-13T11:21:07.846Z,-1.25
2022-12-13T11:23:34.316Z,-1.23
2022-12-13T11:26:07.239Z,-1.22
2022-12-13T11:28:56.183Z,-1.21
2022-12-13T11:31:40.049Z,-1.13
2022-12-13T11:34:26.199Z,-1.05
2022-12-13T11:37:06.152Z,-0.99
2022-12-13T11:39:37.875Z,-0.90
2022-12-13T11:42:22.358Z,-0.86
2022-12-13T11:45:36.545Z,-0.78
2022-12-13T11:48:20.919Z,-0.78
2022-12-13T11:50:50.837Z,-0.79
2022-12-13T11:53:35.761Z,-0.78
2022-12-13T11:56:13.526Z,-0.75
2022-12-13T12:01:40.444Z,-0.65
2022-12-13T12:04:12.849Z,-0.65
2022-12-13T12:06:47.420Z,-0.64
2022-12-13T12:09:20.788Z,-0.59
2022-12-13T12:12:12.844Z,-0.52
2022-12-13T12:14:46.609Z,-0.47
2022-12-13T12:17:16.161Z,-0.42
2022-12-13T12:19:46.748Z,-0.41
2022-12-13T12:22:24.601Z,-0.38
2022-12-13T12:25:03.993Z,-0.31
2022-12-13T12:27:35.308Z,-0.27
2022-12-13T12:30:08.554Z,-0.21
2022-12-13T12:32:57.938Z,-0.21
2022-12-13T12:35:55.508Z,-0.26
2022-12-13T12:38:41.249Z,-0.14
2022-12-13T12:41:45.512Z,-0.07
2022-12-13T12:44:31.365Z,-0.08
2022-12-13T12:51:05.870Z,0.08
2022-12-13T12:53:50.571Z,0.15
2022-12-13T12:56:23.188Z,0.15
2022-12-13T12:59:09.805Z,0.19
2022-12-13T13:01:45.441Z,0.15
2022-12-13T13:04:22.482Z,0.14
2022-12-13T13:07:25.639Z,0.09
2022-12-13T13:09:54.991Z,0.08
2022-12-13T13:12:29.307Z,0.12
2022-12-13T13:14:57.875Z,0.14
2022-12-13T13:17:24.372Z,0.18
2022-12-13T13:20:15.242Z,0.30
2022-12-13T13:22:44.215Z,0.52
2022-12-13T13:25:40.137Z,0.73
2022-12-13T13:28:22.216Z,0.84
2022-12-13T13:31:08.986Z,0.82
2022-12-13T13:33:41.430Z,0.73
2022-12-13T13:36:08.992Z,0.68
2022-12-13T13:39:01.654Z,0.63
2022-12-13T13:41:55.036Z,0.58
2022-12-13T13:44:46.496Z,0.47
2022-12-13T13:47:18.915Z,0.39
2022-12-13T13:50:13.144Z,0.30
2022-12-13T13:53:20.221Z,0.26
2022-12-13T13:56:11.194Z,0.25
2022-12-13T13:58:52.819Z,0.24
2022-12-13T14:01:32.393Z,0.22
2022-12-13T14:04:26.035Z,0.20
2022-12-13T14:07:14.278Z,0.18
2022-12-13T14:09:57.973Z,0.14
2022-12-13T14:12:27.348Z,0.12
2022-12-13T14:15:15.970Z,0.12
2022-12-13T14:17:48.442Z,0.11
2022-12-13T14:20:17.829Z,0.09
2022-12-13T14:23:04.714Z,0.08
2022-12-13T14:25:42.257Z,0.07
2022-12-13T14:28:19.855Z,0.04
2022-12-13T14:30:47.799Z,0.02
2022-12-13T14:33:25.225Z,-0.04
2022-12-13T14:35:59.865Z,-0.06
2022-12-13T14:38:29.105Z,-0.09
2022-12-13T14:41:01.592Z,-0.13
2022-12-13T14:43:33.785Z,-0.15
2022-12-13T14:46:05.729Z,-0.20
2022-12-13T14:48:55.928Z,-0.23
2022-12-13T14:51:31.042Z,-0.25
2022-12-13T14:53:58.644Z,-0.31
2022-12-13T14:56:28.876Z,-0.32
2022-12-13T14:58:58.270Z,-0.34
2022-12-13T15:01:35.617Z,-0.34
2022-12-13T15:04:21.130Z,-0.34
2022-12-13T15:06:55.156Z,-0.35
2022-12-13T15:09:22.590Z,-0.36
2022-12-13T15:11:49.156Z,-0.37
2022-12-13T15:14:18.604Z,-0.38
2022-12-13T15:16:55.843Z,-0.41
2022-12-13T15:19:30.183Z,-0.43
2022-12-13T15:22:07.219Z,-0.46
2022-12-13T15:24:40.914Z,-0.49
2022-12-13T15:27:08.452Z,-0.53
2022-12-13T15:29:36.749Z,-0.54
2022-12-13T15:32:04.045Z,-0.58
2022-12-13T15:34:31.093Z,-0.59
2022-12-13T15:37:29.021Z,-0.58
2022-12-13T15:40:00.911Z,-0.61
2022-12-13T15:42:33.990Z,-0.61
2022-12-13T15:45:03.616Z,-0.63
2022-12-13T15:47:30.200Z,-0.64
2022-12-13T15:50:01.605Z,-0.67
2022-12-13T15:52:30.562Z,-0.70
2022-12-13T15:55:08.241Z,-0.70
2022-12-13T15:57:55.554Z,-0.70
2022-12-13T16:00:29.587Z,-0.70
2022-12-13T16:03:09.340Z,-0.71
2022-12-13T16:05:40.553Z,-0.69
2022-12-13T16:08:18.048Z,-0.72
2022-12-13T16:10:49.810Z,-0.74
2022-12-13T16:13:39.966Z,-0.76
2022-12-13T16:16:35.140Z,-0.79
2022-12-13T16:19:01.610Z,-0.82
2022-12-13T16:21:28.950Z,-0.79
2022-12-13T16:23:55.665Z,-0.79
2022-12-13T16:26:29.384Z,-0.81
2022-12-13T16:29:00.585Z,-0.83
2022-12-13T16:31:35.304Z,-0.81
2022-12-13T16:34:03.201Z,-0.81
2022-12-13T16:36:30.206Z,-0.82
2022-12-13T16:38:56.741Z,-0.82
2022-12-13T16:41:23.837Z,-0.83
2022-12-13T16:43:56.547Z,-0.83
2022-12-13T16:47:18.023Z,-0.83
2022-12-13T16:49:22.010Z,-0.84
2022-12-13T16:51:49.398Z,-0.84
2022-12-13T16:54:17.438Z,-0.88
2022-12-13T16:56:43.933Z,-0.91
2022-12-13T16:59:19.245Z,-0.90
2022-12-13T17:01:46.413Z,-0.90
2022-12-13T17:04:19.615Z,-0.91
2022-12-13T17:06:47.497Z,-0.91
2022-12-13T17:09:13.912Z,-0.93
2022-12-13T17:11:40.375Z,-0.93
2022-12-13T17:14:07.118Z,-0.91
2022-12-13T17:16:33.622Z,-0.93
2022-12-13T17:19:00.082Z,-0.94
2022-12-13T17:21:28.472Z,-0.93
2022-12-13T17:23:56.336Z,-0.93
2022-12-13T17:26:23.323Z,-0.91
2022-12-13T17:28:50.641Z,-0.90
2022-12-13T17:31:17.811Z,-0.84
2022-12-13T17:33:44.813Z,-0.81
2022-12-13T17:36:13.616Z,-0.79
2022-12-13T17:38:47.438Z,-0.79
2022-12-13T17:41:15.694Z,-0.78
2022-12-13T17:43:43.222Z,-0.79
2022-12-13T17:46:14.167Z,-0.79
2022-12-13T17:48:42.024Z,-0.81
2022-12-13T17:51:10.484Z,-0.84
2022-12-13T17:53:39.311Z,-0.82
2022-12-13T17:56:08.240Z,-0.82
2022-12-13T17:58:35.425Z,-0.81
2022-12-13T18:01:16.606Z,-0.83
2022-12-13T18:03:43.647Z,-0.82
2022-12-13T18:06:10.874Z,-0.82
2022-12-13T18:08:38.940Z,-0.82
2022-12-13T18:13:55.033Z,-0.88
2022-12-13T18:16:25.890Z,-0.89
2022-12-13T18:18:55.869Z,-0.88
2022-12-13T18:21:23.992Z,-0.88
2022-12-13T18:23:55.428Z,-0.88
2022-12-13T18:26:23.770Z,-0.87
2022-12-13T18:28:50.229Z,-0.88
2022-12-13T18:31:20.104Z,-0.88
2022-12-13T18:33:47.855Z,-0.88
2022-12-13T18:36:14.848Z,-0.88
2022-12-13T18:38:42.287Z,-0.90
2022-12-13T18:41:14.738Z,-0.91
2022-12-13T18:43:42.787Z,-0.94
2022-12-13T18:46:10.161Z,-0.98
2022-12-13T18:48:36.944Z,-0.99
2022-12-13T18:51:07.885Z,-0.98
2022-12-13T18:53:35.539Z,-0.95
2022-12-13T18:56:18.397Z,-0.96
2022-12-13T18:58:46.723Z,-0.98
2022-12-13T19:01:15.532Z,-0.96
2022-12-13T19:03:44.556Z,-0.96
2022-12-13T19:06:15.702Z,-0.97
2022-12-13T19:08:42.306Z,-0.97
2022-12-13T19:11:08.801Z,-0.97
2022-12-13T19:13:35.277Z,-0.98
2022-12-13T19:16:08.334Z,-0.97
2022-12-13T19:18:36.055Z,-0.98
2022-12-13T19:21:02.837Z,-0.98
2022-12-13T19:23:29.837Z,-1.00
2022-12-13T19:25:56.623Z,-1.03
2022-12-13T19:28:23.115Z,-1.07
2022-12-13T19:30:49.563Z,-1.09
2022-12-13T19:33:17.307Z,-1.10
2022-12-13T19:35:46.477Z,-1.14
2022-12-13T19:38:13.878Z,-1.16
2022-12-13T19:40:42.296Z,-1.20
2022-12-13T19:43:09.249Z,-1.19
2022-12-13T19:45:35.730Z,-1.20
2022-12-13T19:48:02.381Z,-1.18
2022-12-13T19:50:29.515Z,-1.15
2022-12-13T19:52:56.055Z,-1.18
2022-12-13T19:55:22.521Z,-1.20
2022-12-13T19:57:49.038Z,-1.19
2022-12-13T20:00:15.970Z,-1.20
2022-12-13T20:02:42.507Z,-1.19
2022-12-13T20:05:09.365Z,-1.18
2022-12-13T20:07:36.024Z,-1.17
2022-12-13T20:10:02.976Z,-1.15
2022-12-13T20:12:29.482Z,-1.15
2022-12-13T20:14:56.172Z,-1.14
2022-12-13T20:17:22.604Z,-1.16
2022-12-13T20:19:49.045Z,-1.19
2022-12-13T20:22:15.630Z,-1.19
2022-12-13T20:24:42.062Z,-1.18
2022-12-13T20:27:08.554Z,-1.18
2022-12-13T20:29:35.034Z,-1.20
2022-12-13T20:32:01.553Z,-1.18
2022-12-13T20:34:28.194Z,-1.22
2022-12-13T20:36:54.639Z,-1.21
2022-12-13T20:39:21.162Z,-1.19
2022-12-13T20:41:47.747Z,-1.22
2022-12-13T20:44:14.574Z,-1.28
2022-12-13T20:46:41.258Z,-1.31
2022-12-13T20:49:09.260Z,-1.30
2022-12-13T20:51:37.976Z,-1.27
2022-12-13T20:54:04.862Z,-1.25
2022-12-13T20:56:35.001Z,-1.23
2022-12-13T20:59:02.876Z,-1.24
2022-12-13T21:01:33.283Z,-1.24
2022-12-13T21:04:01.678Z,-1.23
2022-12-13T21:06:29.617Z,-1.25
2022-12-13T21:09:02.262Z,-1.25
2022-12-13T21:11:31.655Z,-1.27
2022-12-13T21:14:17.014Z,-1.33
2022-12-13T21:16:51.395Z,-1.34
2022-12-13T21:19:26.444Z,-1.36
2022-12-13T21:21:53.992Z,-1.34
2022-12-13T21:24:22.406Z,-1.36
2022-12-13T21:26:49.256Z,-1.33
2022-12-13T21:29:18.489Z,-1.34
2022-12-13T21:31:49.186Z,-1.36
2022-12-13T21:34:17.093Z,-1.39
2022-12-13T21:36:45.742Z,-1.43
2022-12-13T21:39:15.198Z,-1.38
2022-12-13T21:41:42.740Z,-1.40
2022-12-13T21:44:14.529Z,-1.38
2022-12-13T21:47:10.830Z,-1.36
2022-12-13T21:49:28.223Z,-1.35
2022-12-13T21:51:55.142Z,-1.41
2022-12-13T21:54:22.735Z,-1.43
2022-12-13T21:57:07.825Z,-1.40
2022-12-13T21:59:34.365Z,-1.38
2022-12-13T22:02:13.631Z,-1.34
2022-12-13T22:04:41.548Z,-1.31
2022-12-13T22:07:10.577Z,-1.30
2022-12-13T22:09:37.613Z,-1.29
2022-12-13T22:12:19.030Z,-1.28
2022-12-13T22:14:46.262Z,-1.28
2022-12-13T22:17:12.915Z,-1.23
2022-12-13T22:19:39.760Z,-1.22
2022-12-13T22:22:06.923Z,-1.18
2022-12-13T22:24:33.802Z,-1.18
2022-12-13T22:27:00.608Z,-1.19
2022-12-13T22:29:27.351Z,-1.19
2022-12-13T22:31:53.898Z,-1.18
2022-12-13T22:34:20.384Z,-1.17
2022-12-13T22:36:46.857Z,-1.18
2022-12-13T22:39:19.059Z,-1.21
2022-12-13T22:41:46.488Z,-1.21
2022-12-13T22:44:13.829Z,-1.20
2022-12-13T22:46:40.985Z,-1.20
2022-12-13T22:49:08.345Z,-1.25
2022-12-13T22:51:35.474Z,-1.23
2022-12-13T22:54:02.230Z,-1.25
2022-12-13T22:56:28.774Z,-1.24
2022-12-13T22:58:57.278Z,-1.27
2022-12-13T23:01:26.724Z,-1.30
2022-12-13T23:03:53.620Z,-1.31
2022-12-13T23:06:23.397Z,-1.35
2022-12-13T23:08:52.530Z,-1.37
2022-12-13T23:11:37.788Z,-1.37
2022-12-13T23:14:07.790Z,-1.36
2022-12-13T23:16:35.122Z,-1.37
2022-12-13T23:19:39.121Z,-1.36
2022-12-13T23:21:49.687Z,-1.37
2022-12-13T23:24:16.391Z,-1.35
2022-12-13T23:26:42.957Z,-1.34
2022-12-13T23:29:09.742Z,-1.35
2022-12-13T23:31:39.601Z,-1.35
2022-12-13T23:34:06.669Z,-1.38
2022-12-13T23:36:34.083Z,-1.40
2022-12-13T23:39:02.148Z,-1.41
2022-12-13T23:41:33.665Z,-1.43
2022-12-13T23:44:01.060Z,-1.44
2022-12-13T23:46:30.407Z,-1.45
2022-12-13T23:48:58.415Z,-1.48
2022-12-13T23:51:25.869Z,-1.49
2022-12-13T23:53:53.199Z,-1.54
2022-12-13T23:56:20.843Z,-1.50
2022-12-13T23:58:48.074Z,-1.49
